createdAt,value
2023-05-16T00:03:20.951Z,5.57
2023-05-16T00:07:23.644Z,5.78
2023-05-16T00:11:26.366Z,6.55
2023-05-16T00:15:30.796Z,8.00
2023-05-16T00:19:33.439Z,4.75
2023-05-16T00:23:36.150Z,5.72
2023-05-16T00:27:38.774Z,7.45
2023-05-16T00:31:42.930Z,8.10
2023-05-16T00:35:45.641Z,6.97
2023-05-16T00:39:48.276Z,6.57
2023-05-16T00:43:50.883Z,5.75
2023-05-16T00:47:54.985Z,5.57
2023-05-16T00:51:58.452Z,6.22
2023-05-16T00:56:01.112Z,5.68
2023-05-16T01:00:03.870Z,6.18
2023-05-16T01:04:08.950Z,9.10
2023-05-16T01:08:11.667Z,7.75
2023-05-16T01:12:22.614Z,6.90
2023-05-16T01:16:28.418Z,6.18
2023-05-16T01:20:37.018Z,8.38
2023-05-16T01:24:45.270Z,8.77
2023-05-16T01:28:50.352Z,6.95
2023-05-16T01:32:53.076Z,5.65
2023-05-16T01:37:04.410Z,10.93
2023-05-16T01:41:10.184Z,20.30
2023-05-16T01:45:20.064Z,6.35
2023-05-16T01:49:27.777Z,4.32
2023-05-16T01:53:35.091Z,9.13
2023-05-16T01:57:37.982Z,6.15
2023-05-16T02:01:42.076Z,4.13
2023-05-16T02:05:44.789Z,5.18
2023-05-16T02:09:47.505Z,6.20
2023-05-16T02:13:50.173Z,4.60
2023-05-16T02:17:54.400Z,3.75
2023-05-16T02:21:57.256Z,5.15
2023-05-16T02:25:59.962Z,4.40
2023-05-16T02:30:02.630Z,4.25
2023-05-16T02:34:07.233Z,9.15
2023-05-16T02:38:10.162Z,4.63
2023-05-16T02:42:13.042Z,6.80
2023-05-16T02:46:23.254Z,7.20
2023-05-16T02:50:27.539Z,4.68
2023-05-16T02:54:30.221Z,5.03
2023-05-16T02:58:32.823Z,4.65
2023-05-16T03:02:35.463Z,6.85
2023-05-16T03:06:39.470Z,5.80
2023-05-16T03:10:42.215Z,3.70
2023-05-16T03:14:45.304Z,6.60
2023-05-16T03:18:47.906Z,4.95
2023-05-16T03:22:52.183Z,11.20
2023-05-16T03:26:55.108Z,4.32
2023-05-16T03:30:57.709Z,6.93
2023-05-16T03:35:00.531Z,5.45
2023-05-16T03:39:04.806Z,4.65
2023-05-16T03:43:07.403Z,6.38
2023-05-16T03:47:10.060Z,5.15
2023-05-16T03:51:12.937Z,3.13
2023-05-16T03:55:17.067Z,4.22
2023-05-16T03:59:19.824Z,1.63
2023-05-16T04:03:28.414Z,2.38
2023-05-16T04:07:31.290Z,1.83
2023-05-16T04:11:35.361Z,1.73
2023-05-16T04:15:37.944Z,2.38
2023-05-16T04:19:40.900Z,4.78
2023-05-16T04:23:43.577Z,2.75
2023-05-16T04:27:47.573Z,3.63
2023-05-16T04:31:50.333Z,4.00
2023-05-16T04:35:54.700Z,0.73
2023-05-16T04:39:57.345Z,1.52
2023-05-16T04:44:03.528Z,5.35
2023-05-16T04:48:06.620Z,0.93
2023-05-16T04:52:09.985Z,1.20
2023-05-16T04:56:12.677Z,0.80
2023-05-16T05:00:17.700Z,1.23
2023-05-16T05:04:20.655Z,0.60
2023-05-16T05:08:23.469Z,2.00
2023-05-16T05:12:27.135Z,2.25
2023-05-16T05:20:33.558Z,0.50
2023-05-16T05:24:36.368Z,0.75
2023-05-16T05:28:39.396Z,1.35
2023-05-16T05:36:46.662Z,0.20
2023-05-16T05:40:49.587Z,0.40
2023-05-16T05:44:52.283Z,0.35
2023-05-16T05:48:56.334Z,1.55
2023-05-16T05:52:59.004Z,0.55
2023-05-16T05:57:01.706Z,0.32
2023-05-16T06:01:04.469Z,0.10
2023-05-16T06:05:09.755Z,1.25
2023-05-16T06:09:12.703Z,1.45
2023-05-16T06:13:15.569Z,0.45
2023-05-16T06:17:18.359Z,1.10
2023-05-16T06:21:22.480Z,0.73
2023-05-16T06:25:25.373Z,0.60
2023-05-16T06:29:28.165Z,1.98
2023-05-16T06:33:30.867Z,0.85
2023-05-16T06:37:34.835Z,1.02
2023-05-16T06:41:37.515Z,3.08
2023-05-16T06:45:40.528Z,1.42
2023-05-16T06:49:43.177Z,1.20
2023-05-16T06:53:47.193Z,2.13
2023-05-16T06:57:49.959Z,2.30
2023-05-16T07:01:52.973Z,4.45
2023-05-16T07:05:57.249Z,2.65
2023-05-16T07:10:01.373Z,2.00
2023-05-16T07:14:04.108Z,2.10
2023-05-16T07:18:07.014Z,3.75
2023-05-16T07:22:10.285Z,3.63
2023-05-16T07:26:14.460Z,2.35
2023-05-16T07:30:17.816Z,1.85
2023-05-16T07:34:20.700Z,2.35
2023-05-16T07:38:23.379Z,2.15
2023-05-16T07:42:27.493Z,2.28
2023-05-16T07:46:30.465Z,3.08
2023-05-16T07:50:33.283Z,2.58
2023-05-16T07:54:36.674Z,3.83
2023-05-16T07:58:40.941Z,5.50
2023-05-16T08:02:44.597Z,5.15
2023-05-16T08:06:47.708Z,3.95
2023-05-16T08:10:50.420Z,7.20
2023-05-16T08:14:54.568Z,3.97
2023-05-16T08:18:57.373Z,3.00
2023-05-16T08:23:00.127Z,1.48
2023-05-16T08:27:02.869Z,5.05
2023-05-16T08:31:07.438Z,6.10
2023-05-16T08:35:11.095Z,5.50
2023-05-16T08:43:16.754Z,5.85
2023-05-16T08:47:22.803Z,7.57
2023-05-16T08:51:26.826Z,5.65
2023-05-16T08:55:30.074Z,8.45
2023-05-16T08:59:33.123Z,8.88
2023-05-16T09:03:38.253Z,7.10
2023-05-16T09:07:41.658Z,8.40
2023-05-16T09:11:44.458Z,14.23
2023-05-16T09:15:47.931Z,11.25
2023-05-16T09:19:56.575Z,12.40
2023-05-16T09:24:04.872Z,14.15
2023-05-16T09:28:11.894Z,21.77
2023-05-16T09:32:16.631Z,12.68
2023-05-16T09:36:20.658Z,8.95
2023-05-16T09:40:23.740Z,15.30
2023-05-16T09:44:26.494Z,13.27
2023-05-16T09:48:29.384Z,11.38
2023-05-16T09:52:33.580Z,11.55
2023-05-16T09:56:50.029Z,10.10
2023-05-16T10:00:52.736Z,10.60
2023-05-16T10:04:55.400Z,9.52
2023-05-16T10:09:02.823Z,13.43
2023-05-16T10:13:07.250Z,9.30
2023-05-16T10:17:11.848Z,7.10
2023-05-16T10:21:16.360Z,7.68
2023-05-16T10:25:25.651Z,11.38
2023-05-16T10:29:30.603Z,6.88
2023-05-16T10:33:37.008Z,11.82
2023-05-16T10:37:40.117Z,6.47
2023-05-16T10:41:44.542Z,7.18
2023-05-16T10:45:55.655Z,6.93
2023-05-16T10:49:58.517Z,9.25
2023-05-16T10:54:06.383Z,4.95
2023-05-16T10:58:10.402Z,3.90
2023-05-16T11:02:34.865Z,8.68
2023-05-16T11:06:46.676Z,6.72
2023-05-16T11:10:49.550Z,5.60
2023-05-16T11:14:53.729Z,8.70
2023-05-16T11:18:56.952Z,5.35
2023-05-16T11:23:22.424Z,6.82
2023-05-16T11:27:27.227Z,8.02
2023-05-16T11:31:31.337Z,6.45
2023-05-16T11:35:34.548Z,5.75
2023-05-16T11:39:37.369Z,6.55
2023-05-16T11:43:45.356Z,5.63
2023-05-16T11:47:50.670Z,5.63
2023-05-16T11:51:57.466Z,3.17
2023-05-16T11:56:02.194Z,5.47
2023-05-16T12:00:08.089Z,5.90
2023-05-16T12:04:13.051Z,5.85
2023-05-16T12:08:17.368Z,7.28
2023-05-16T12:12:21.539Z,6.53
2023-05-16T12:16:24.545Z,5.03
2023-05-16T12:24:32.275Z,11.50
2023-05-16T12:28:35.657Z,5.55
2023-05-16T12:32:38.737Z,4.97
2023-05-16T12:40:46.720Z,8.02
2023-05-16T12:44:49.397Z,5.80
2023-05-16T12:49:02.830Z,6.50
2023-05-16T12:53:07.703Z,7.93
2023-05-16T12:57:10.770Z,3.22
2023-05-16T13:05:20.509Z,7.30
2023-05-16T13:09:25.108Z,3.50
2023-05-16T13:13:36.059Z,11.98
2023-05-16T13:17:40.757Z,6.05
2023-05-16T13:21:43.450Z,8.02
2023-05-16T13:25:49.330Z,5.20
2023-05-16T13:29:52.346Z,7.97
2023-05-16T13:33:55.104Z,4.43
2023-05-16T13:37:57.784Z,3.17
2023-05-16T13:42:03.157Z,4.45
2023-05-16T13:46:06.089Z,7.97
2023-05-16T13:50:10.483Z,2.85
2023-05-16T13:54:13.263Z,5.57
2023-05-16T13:58:17.393Z,4.43
2023-05-16T14:02:20.114Z,3.13
2023-05-16T14:06:22.786Z,4.75
2023-05-16T14:10:26.535Z,2.88
2023-05-16T14:14:30.849Z,6.57
2023-05-16T14:18:33.574Z,4.20
2023-05-16T14:22:36.324Z,4.78
2023-05-16T14:26:39.110Z,7.43
2023-05-16T14:30:43.309Z,3.95
2023-05-16T14:34:46.547Z,4.97
2023-05-16T14:38:49.430Z,3.85
2023-05-16T14:42:52.200Z,5.28
2023-05-16T14:46:56.312Z,4.25
2023-05-16T14:50:58.970Z,3.88
2023-05-16T14:55:02.036Z,2.72
2023-05-16T15:03:08.794Z,4.57
2023-05-16T15:07:11.796Z,3.35
2023-05-16T15:11:14.940Z,3.10
2023-05-16T15:19:22.063Z,4.90
2023-05-16T15:23:24.776Z,3.03
2023-05-16T15:27:27.456Z,5.70
2023-05-16T15:31:32.094Z,2.85
2023-05-16T15:35:36.330Z,6.63
2023-05-16T15:39:39.050Z,3.50
2023-05-16T15:43:41.998Z,7.93
2023-05-16T15:47:44.727Z,4.38
2023-05-16T15:51:49.239Z,4.85
2023-05-16T15:55:52.236Z,3.50
2023-05-16T15:59:54.904Z,3.28
2023-05-16T16:03:57.871Z,6.28
2023-05-16T16:08:02.056Z,7.25
2023-05-16T16:12:05.123Z,3.35
2023-05-16T16:16:08.273Z,3.92
2023-05-16T16:20:11.830Z,3.08
2023-05-16T16:24:15.940Z,9.35
2023-05-16T16:28:19.635Z,1.83
2023-05-16T16:32:23.447Z,3.58
2023-05-16T16:36:26.460Z,3.45
2023-05-16T16:40:31.740Z,6.15
2023-05-16T16:44:34.866Z,4.90
2023-05-16T16:48:37.800Z,3.75
2023-05-16T16:52:40.583Z,3.70
2023-05-16T16:56:46.007Z,2.90
2023-05-16T17:00:49.097Z,4.15
2023-05-16T17:04:52.061Z,5.00
2023-05-16T17:08:54.736Z,2.65
2023-05-16T17:13:05.905Z,5.50
2023-05-16T17:17:08.700Z,5.00
2023-05-16T17:21:12.903Z,4.65
2023-05-16T17:25:15.764Z,1.70
2023-05-16T17:29:20.116Z,4.00
2023-05-16T17:33:22.981Z,4.50
2023-05-16T17:37:26.522Z,4.43
2023-05-16T17:41:29.197Z,6.55
2023-05-16T17:45:33.671Z,2.20
2023-05-16T17:49:36.428Z,3.72
2023-05-16T17:53:39.226Z,4.07
2023-05-16T17:57:41.914Z,2.80
2023-05-16T18:01:46.366Z,2.38
2023-05-16T18:05:49.720Z,6.00
2023-05-16T18:13:56.483Z,4.05
2023-05-16T18:18:00.692Z,2.67
2023-05-16T18:22:06.983Z,3.28
2023-05-16T18:26:10.153Z,3.90
2023-05-16T18:30:13.760Z,2.70
2023-05-16T18:34:17.840Z,8.90
2023-05-16T18:38:31.262Z,4.03
2023-05-16T18:42:35.046Z,3.67
2023-05-16T18:46:37.729Z,3.05
2023-05-16T18:50:41.906Z,2.63
2023-05-16T18:54:44.701Z,4.47
2023-05-16T18:58:47.850Z,3.38
2023-05-16T19:02:51.142Z,4.63
2023-05-16T19:06:56.406Z,5.25
2023-05-16T19:10:59.458Z,5.05
2023-05-16T19:15:02.125Z,3.88
2023-05-16T19:19:07.786Z,3.00
2023-05-16T19:23:12.105Z,8.18
2023-05-16T19:27:14.912Z,4.80
2023-05-16T19:31:17.741Z,3.58
2023-05-16T19:35:20.369Z,2.90
2023-05-16T19:39:24.445Z,3.75
2023-05-16T19:43:27.170Z,2.58
2023-05-16T19:47:29.899Z,2.88
2023-05-16T19:55:56.824Z,3.92
2023-05-16T19:59:59.500Z,5.25
2023-05-16T20:04:05.411Z,7.15
2023-05-16T20:08:09.433Z,4.18
2023-05-16T20:12:13.737Z,2.42
2023-05-16T20:16:17.771Z,1.52
2023-05-16T20:20:20.409Z,2.90
2023-05-16T20:24:23.097Z,2.47
2023-05-16T20:28:27.164Z,2.67
2023-05-16T20:32:29.894Z,3.35
2023-05-16T20:36:32.690Z,4.38
2023-05-16T20:40:35.363Z,3.05
2023-05-16T20:44:39.690Z,2.38
2023-05-16T20:48:42.367Z,4.53
2023-05-16T20:52:45.063Z,3.50
2023-05-16T20:56:47.822Z,2.50
2023-05-16T21:00:52.374Z,4.78
2023-05-16T21:04:56.070Z,4.13
2023-05-16T21:13:01.460Z,3.33
2023-05-16T21:17:05.780Z,3.72
2023-05-16T21:21:08.430Z,4.82
2023-05-16T21:25:11.326Z,2.97
2023-05-16T21:29:14.007Z,3.13
2023-05-16T21:33:18.181Z,3.95
2023-05-16T21:37:21.545Z,4.93
2023-05-16T21:41:24.328Z,4.85
2023-05-16T21:45:27.220Z,6.10
2023-05-16T21:49:32.909Z,3.92
2023-05-16T21:53:35.664Z,4.88
2023-05-16T21:57:38.650Z,5.10
2023-05-16T22:01:41.313Z,5.30
2023-05-16T22:05:45.999Z,2.42
2023-05-16T22:09:50.836Z,3.05
2023-05-16T22:13:53.579Z,4.40
2023-05-16T22:17:57.513Z,4.45
2023-05-16T22:22:01.667Z,5.20
2023-05-16T22:26:04.764Z,2.90
2023-05-16T22:30:08.815Z,6.57
2023-05-16T22:34:11.560Z,2.60
2023-05-16T22:38:15.762Z,6.57
2023-05-16T22:42:18.376Z,6.13
2023-05-16T22:46:21.178Z,4.20
2023-05-16T22:50:23.858Z,4.63
2023-05-16T22:54:27.856Z,6.60
2023-05-16T22:58:30.679Z,4.88
2023-05-16T23:02:33.404Z,7.32
2023-05-16T23:06:36.160Z,6.40
2023-05-16T23:10:40.384Z,5.05
2023-05-16T23:14:43.038Z,7.60
2023-05-16T23:18:45.823Z,8.73
2023-05-16T23:22:48.555Z,5.88
2023-05-16T23:26:52.663Z,6.57
2023-05-16T23:30:55.379Z,3.10
2023-05-16T23:34:58.016Z,4.47
2023-05-16T23:39:00.677Z,5.22
2023-05-16T23:43:04.682Z,3.10
2023-05-16T23:47:07.538Z,6.40
2023-05-16T23:51:10.178Z,4.80
2023-05-16T23:55:13.525Z,6.50
2023-05-16T23:59:18.912Z,6.05
